Meteo Giornale » Osservazioni meteo Italia » Napoli-Capodichino

ore: 00:50 - Osservazioni Meteo Napoli-Capodichino
Lat. 40° 51' N Lon. 14° 18' E Alt. 88 metri s.l.m.

poco_nuvoloso Europe/Rome

16 °C

Poco Nuvoloso

Temp. 24 Ore

13 °C

24 °C

Nord

0 Km/h

Dew point 14 °C

Umidità 87 %

Visibilità  8 Km

Il sole sorge alle ore 07:20

Il sole tramonta alle ore 18:14

Data e Ora Cielo e Fenomeni T °C DP °C Um. % Pres. hPa Vis. km Vento km/h
Oggi h: 00:50 poco_nuvoloso Poco Nuvoloso 16 14 87 1021 8 N 0
Oggi h: 00:20 poco_nuvoloso Poco Nuvoloso 15 13 87 1021 8 N 3.7
Ieri h: 23:50 poco_nuvoloso Poco Nuvoloso 15 13 87 1021 8 N 0
Ieri h: 23:20 poco_nuvoloso Poco Nuvoloso 15 13 87 1021 8 N 0
Ieri h: 22:50 poco_nuvoloso Poco Nuvoloso 16 14 87 1021 8 N 0
Ieri h: 22:20 poco_nuvoloso Poco Nuvoloso 17 14 82 1021 8 N 1.8
Ieri h: 21:50 poco_nuvoloso Poco Nuvoloso 18 15 82 1020 9 N 3.7
Ieri h: 21:20 poco_nuvoloso Poco Nuvoloso 19 15 77 1020 8 N 5.5
Ieri h: 20:50 poco_nuvoloso Poco Nuvoloso 19 15 77 1020 8 N 5.5
Ieri h: 20:20 poco_nuvoloso Poco Nuvoloso 19 15 77 1020 8 NO 7.4
Ieri h: 19:50 poco_nuvoloso Poco Nuvoloso 19 15 77 1020 8 N 3.7
Ieri h: 19:20 poco_nuvoloso Poco Nuvoloso 19 15 77 1020 8 N 3.7
Ieri h: 18:50 poco_nuvoloso Poco Nuvoloso 20 15 72 1019 8 N 1.8
Ieri h: 18:20 poco_nuvoloso Poco Nuvoloso 20 15 72 1019 8 N 1.8
Ieri h: 17:50 poco_nuvoloso Poco Nuvoloso 22 13 56 1019 10 N 3.7
Ieri h: 17:20 poco_nuvoloso Poco Nuvoloso 22 11 49 1019 10 S 7.4
Ieri h: 16:50 poco_nuvoloso Poco Nuvoloso 22 13 56 1018 10 S 7.4
Ieri h: 16:20 poco_nuvoloso Poco Nuvoloso 23 13 53 1018 10 S 9.3
Ieri h: 15:50 poco_nuvoloso Poco Nuvoloso 23 12 49 1018 10 S 11.1
Ieri h: 15:20 poco_nuvoloso Poco Nuvoloso 24 11 43 1018 10 S 7.4
Ieri h: 14:50 poco_nuvoloso Poco Nuvoloso 24 12 47 1018 10 S/SO 7.4
Ieri h: 14:20 poco_nuvoloso Poco Nuvoloso 24 8 35 1018 10 S 9.3
Ieri h: 13:50 poco_nuvoloso Poco Nuvoloso 24 9 38 1018 10 S/SO 11.1
Ieri h: 13:20 poco_nuvoloso Poco Nuvoloso 24 14 53 1019 8 N 3.7
Ieri h: 12:50 poco_nuvoloso Poco Nuvoloso 23 13 53 1019 8 N 3.7
Ieri h: 12:20 poco_nuvoloso Poco Nuvoloso 22 13 56 1019 8 N 3.7
Ieri h: 11:50 poco_nuvoloso Poco Nuvoloso 21 14 64 1019 7 N 3.7
Ieri h: 11:20 poco_nuvoloso Poco Nuvoloso 21 14 64 1019 7 N 5.5
Ieri h: 10:50 poco_nuvoloso Poco Nuvoloso 19 14 72 1019 7 N 7.4
Ieri h: 10:20 poco_nuvoloso Poco Nuvoloso 18 14 77 1019 6 N 7.4
Ieri h: 09:50 poco_nuvoloso Poco Nuvoloso 17 14 82 1019 6 N 7.4
Ieri h: 09:20 poco_nuvoloso Poco Nuvoloso 16 13 82 1019 6 N 5.5
Ieri h: 08:50 poco_nuvoloso Poco Nuvoloso 15 13 87 1019 6 N 5.5
Ieri h: 08:20 poco_nuvoloso Poco Nuvoloso 14 13 93 1018 6 N/NE 7.4
Ieri h: 07:50 foschia Foschia 14 13 93 1018 3 N 5.5
Ieri h: 07:20 foschia Foschia 14 13 93 1018 3 N 5.5
Ieri h: 06:50 poco_nuvoloso Poco Nuvoloso 14 13 93 1018 6 N 1.8
Ieri h: 06:20 poco_nuvoloso Poco Nuvoloso 13 12 93 1018 6 N 1.8
Ieri h: 05:50 poco_nuvoloso Poco Nuvoloso 13 12 93 1018 6 N 1.8
Ieri h: 05:20 poco_nuvoloso Poco Nuvoloso 13 12 93 1018 6 N 1.8
Ieri h: 04:50 poco_nuvoloso Poco Nuvoloso 13 12 93 1018 6 N 3.7
Ieri h: 04:20 poco_nuvoloso Poco Nuvoloso 13 12 93 1018 6 N 3.7
Ieri h: 03:50 poco_nuvoloso Poco Nuvoloso 13 12 93 1018 6 N 3.7
Ieri h: 03:20 poco_nuvoloso Poco Nuvoloso 13 12 93 1018 6 N 3.7
Ieri h: 02:50 poco_nuvoloso Poco Nuvoloso 14 13 93 1018 6 N 3.7
Ieri h: 02:20 poco_nuvoloso Poco Nuvoloso 15 13 87 1018 6 N 5.5
Ieri h: 01:50 poco_nuvoloso Poco Nuvoloso 14 13 93 1018 6 N 1.8